createdAt,value
2022-09-14T00:00:31.427Z,97404.05
2022-09-14T00:03:55.208Z,97406.55
2022-09-14T00:06:56.743Z,97402.23
2022-09-14T00:09:58.239Z,97392.48
2022-09-14T00:12:59.913Z,97391.25
2022-09-14T00:16:04.873Z,97392.36
2022-09-14T00:19:14.627Z,97388.50
2022-09-14T00:22:16.087Z,97389.89
2022-09-14T00:25:17.731Z,97389.02
2022-09-14T00:28:19.183Z,97383.05
2022-09-14T00:31:21.628Z,97378.05
2022-09-14T00:34:23.249Z,97381.78
2022-09-14T00:37:24.975Z,97377.61
2022-09-14T00:40:26.552Z,97377.36
2022-09-14T00:43:28.105Z,97377.79
2022-09-14T00:46:34.573Z,97372.16
2022-09-14T00:49:39.703Z,97368.09
2022-09-14T00:52:44.923Z,97373.80
2022-09-14T00:55:46.540Z,97366.59
2022-09-14T00:58:52.576Z,97362.77
2022-09-14T01:01:54.986Z,97363.08
2022-09-14T01:04:56.923Z,97361.29
2022-09-14T01:08:29.044Z,97361.24
2022-09-14T01:12:10.462Z,97358.20
2022-09-14T01:15:20.541Z,97362.27
2022-09-14T01:18:32.209Z,97364.55
2022-09-14T01:21:37.616Z,97361.70
2022-09-14T01:25:04.667Z,97355.24
2022-09-14T01:28:22.438Z,97353.39
2022-09-14T01:32:05.293Z,97352.48
2022-09-14T01:35:34.634Z,97348.86
2022-09-14T01:38:43.448Z,97343.35
2022-09-14T01:41:46.917Z,97340.00
2022-09-14T01:44:52.685Z,97335.52
2022-09-14T01:48:00.186Z,97332.20
2022-09-14T01:51:07.803Z,97327.95
2022-09-14T01:54:20.066Z,97331.52
2022-09-14T01:57:31.274Z,97330.47
2022-09-14T02:00:34.062Z,97331.21
2022-09-14T02:03:41.386Z,97327.63
2022-09-14T02:06:46.893Z,97327.56
2022-09-14T02:09:50.347Z,97328.21
2022-09-14T02:12:55.131Z,97325.39
2022-09-14T02:15:56.729Z,97322.46
2022-09-14T02:19:01.161Z,97320.77
2022-09-14T02:22:03.226Z,97317.48
2022-09-14T02:25:05.245Z,97318.31
2022-09-14T02:28:07.305Z,97309.71
2022-09-14T02:31:27.188Z,97313.04
2022-09-14T02:34:43.126Z,97308.19
2022-09-14T02:37:56.842Z,97304.43
2022-09-14T02:41:36.544Z,97291.00
2022-09-14T02:45:03.909Z,97284.55
2022-09-14T02:48:26.576Z,97282.47
2022-09-14T02:51:48.869Z,97285.40
2022-09-14T02:55:17.282Z,97286.25
2022-09-14T02:58:18.789Z,97281.79
2022-09-14T03:01:22.601Z,97282.79
2022-09-14T03:04:24.167Z,97285.66
2022-09-14T03:07:25.735Z,97294.91
2022-09-14T03:10:27.885Z,97291.45
2022-09-14T03:13:29.209Z,97294.90
2022-09-14T03:16:31.194Z,97295.91
2022-09-14T03:19:32.697Z,97293.01
2022-09-14T03:22:34.258Z,97295.51
2022-09-14T03:25:40.835Z,97296.67
2022-09-14T03:28:42.831Z,97298.79
2022-09-14T03:31:44.312Z,97296.41
2022-09-14T03:34:45.823Z,97291.16
2022-09-14T03:37:47.293Z,97293.44
2022-09-14T03:40:48.864Z,97286.54
2022-09-14T03:43:50.746Z,97289.25
2022-09-14T03:46:52.375Z,97293.10
2022-09-14T03:49:54.125Z,97301.16
2022-09-14T03:52:55.790Z,97302.52
2022-09-14T03:55:57.920Z,97299.30
2022-09-14T03:58:59.413Z,97302.05
2022-09-14T04:02:01.700Z,97300.14
2022-09-14T04:05:03.456Z,97289.41
2022-09-14T04:08:04.999Z,97288.83
2022-09-14T04:11:13.979Z,97287.68
2022-09-14T04:14:15.947Z,97279.63
2022-09-14T04:17:17.727Z,97280.65
2022-09-14T04:20:19.627Z,97278.80
2022-09-14T04:23:21.181Z,97271.91
2022-09-14T04:26:26.183Z,97272.62
2022-09-14T04:29:29.837Z,97272.83
2022-09-14T04:32:34.410Z,97271.20
2022-09-14T04:35:37.157Z,97273.34
2022-09-14T04:38:40.309Z,97271.73
2022-09-14T04:41:42.325Z,97277.52
2022-09-14T04:44:43.854Z,97281.82
2022-09-14T04:47:45.509Z,97284.86
2022-09-14T04:50:47.270Z,97282.95
2022-09-14T04:53:51.096Z,97285.52
2022-09-14T04:56:52.620Z,97280.79
2022-09-14T04:59:54.110Z,97279.34
2022-09-14T05:02:55.670Z,97287.25
2022-09-14T05:06:14.638Z,97290.48
2022-09-14T05:09:17.689Z,97284.66
2022-09-14T05:12:19.150Z,97288.32
2022-09-14T05:15:20.630Z,97291.44
2022-09-14T05:18:22.133Z,97289.20
2022-09-14T05:21:24.558Z,97282.88
2022-09-14T05:24:26.237Z,97284.02
2022-09-14T05:27:27.712Z,97285.80
2022-09-14T05:30:29.284Z,97282.83
2022-09-14T05:33:30.733Z,97280.58
2022-09-14T05:36:32.230Z,97280.39
2022-09-14T05:39:33.862Z,97282.10
2022-09-14T05:42:35.405Z,97285.80
2022-09-14T05:45:37.000Z,97286.69
2022-09-14T05:48:39.868Z,97282.72
2022-09-14T05:51:41.421Z,97282.96
2022-09-14T05:54:42.865Z,97280.50
2022-09-14T05:57:49.178Z,97285.39
2022-09-14T06:00:50.595Z,97286.85
2022-09-14T06:03:57.768Z,97288.90
2022-09-14T06:07:17.323Z,97290.71
2022-09-14T06:10:21.125Z,97297.88
2022-09-14T06:13:22.866Z,97302.60
2022-09-14T06:16:28.839Z,97299.62
2022-09-14T06:19:30.380Z,97296.05
2022-09-14T06:22:31.854Z,97295.52
2022-09-14T06:25:33.271Z,97299.36
2022-09-14T06:28:35.657Z,97304.83
2022-09-14T06:31:37.534Z,97308.74
2022-09-14T06:34:39.684Z,97311.59
2022-09-14T06:37:41.149Z,97313.27
2022-09-14T06:40:51.514Z,97317.77
2022-09-14T06:43:56.158Z,97322.23
2022-09-14T06:46:57.614Z,97315.28
2022-09-14T06:49:59.800Z,97315.14
2022-09-14T06:53:01.326Z,97316.38
2022-09-14T06:56:03.006Z,97319.36
2022-09-14T06:59:07.544Z,97313.55
2022-09-14T07:02:11.638Z,97317.46
2022-09-14T07:05:15.081Z,97314.65
2022-09-14T07:08:16.661Z,97313.64
2022-09-14T07:11:20.900Z,97315.14
2022-09-14T07:14:22.512Z,97322.73
2022-09-14T07:17:24.073Z,97323.19
2022-09-14T07:20:25.701Z,97319.52
2022-09-14T07:23:27.457Z,97313.17
2022-09-14T07:26:38.874Z,97310.27
2022-09-14T07:29:40.461Z,97307.64
2022-09-14T07:32:41.940Z,97304.94
2022-09-14T07:35:43.421Z,97303.26
2022-09-14T07:38:53.215Z,97304.05
2022-09-14T07:41:55.063Z,97306.73
2022-09-14T07:44:56.565Z,97311.13
2022-09-14T07:47:58.718Z,97308.25
2022-09-14T07:51:04.251Z,97312.81
2022-09-14T07:54:07.770Z,97306.95
2022-09-14T07:57:10.681Z,97305.90
2022-09-14T08:00:13.802Z,97299.30
2022-09-14T08:03:15.842Z,97302.56
2022-09-14T08:06:23.284Z,97295.36
2022-09-14T08:09:25.679Z,97300.55
2022-09-14T08:12:27.356Z,97301.48
2022-09-14T08:15:28.930Z,97298.95
2022-09-14T08:18:31.230Z,97300.61
2022-09-14T08:21:35.028Z,97295.94
2022-09-14T08:24:36.540Z,97297.91
2022-09-14T08:27:39.075Z,97298.43
2022-09-14T08:30:40.959Z,97302.11
2022-09-14T08:33:45.842Z,97303.86
2022-09-14T08:36:48.536Z,97307.52
2022-09-14T08:39:51.787Z,97305.75
2022-09-14T08:42:58.137Z,97306.57
2022-09-14T08:46:04.125Z,97302.88
2022-09-14T08:49:14.107Z,97299.06
2022-09-14T08:52:35.311Z,97301.73
2022-09-14T08:55:44.589Z,97305.71
2022-09-14T08:59:16.791Z,97307.85
2022-09-14T09:02:32.611Z,97313.92
2022-09-14T09:05:51.209Z,97309.52
2022-09-14T09:09:09.683Z,97307.55
2022-09-14T09:12:19.921Z,97304.15
2022-09-14T09:15:42.479Z,97305.27
2022-09-14T09:18:48.814Z,97303.80
2022-09-14T09:21:51.279Z,97303.73
2022-09-14T09:24:54.450Z,97298.06
2022-09-14T09:28:02.814Z,97293.69
2022-09-14T09:31:10.230Z,97292.88
2022-09-14T09:34:34.336Z,97295.27
2022-09-14T09:37:45.975Z,97293.16
2022-09-14T09:40:53.797Z,97289.85
2022-09-14T09:44:08.786Z,97283.17
2022-09-14T09:47:10.600Z,97281.74
2022-09-14T09:50:24.510Z,97282.91
2022-09-14T09:53:27.046Z,97285.25
2022-09-14T09:56:32.780Z,97289.13
2022-09-14T09:59:40.456Z,97287.50
2022-09-14T10:02:42.075Z,97287.87
2022-09-14T10:05:43.672Z,97282.61
2022-09-14T10:08:46.974Z,97282.52
2022-09-14T10:12:03.319Z,97283.18
2022-09-14T10:15:32.382Z,97279.55
2022-09-14T10:18:34.977Z,97273.33
2022-09-14T10:22:04.997Z,97269.29
2022-09-14T10:25:12.616Z,97262.39
2022-09-14T10:28:24.252Z,97263.30
2022-09-14T10:31:31.069Z,97263.45
2022-09-14T10:34:33.209Z,97261.77
2022-09-14T10:37:55.854Z,97260.84
2022-09-14T10:41:14.793Z,97258.77
2022-09-14T10:44:53.220Z,97259.60
2022-09-14T10:48:28.412Z,97251.06
2022-09-14T10:51:38.403Z,97249.72
2022-09-14T10:55:24.876Z,97250.50
2022-09-14T10:58:38.960Z,97246.85
2022-09-14T11:02:00.878Z,97247.01
2022-09-14T11:05:21.258Z,97246.94
2022-09-14T11:08:34.846Z,97249.23
2022-09-14T11:11:47.849Z,97246.50
2022-09-14T11:15:04.210Z,97243.83
2022-09-14T11:18:24.520Z,97249.08
2022-09-14T11:21:36.022Z,97243.10
2022-09-14T11:24:47.917Z,97235.79
2022-09-14T11:28:19.060Z,97230.66
2022-09-14T11:31:32.277Z,97227.88
2022-09-14T11:34:40.578Z,97231.29
2022-09-14T11:37:48.736Z,97231.33
2022-09-14T11:41:02.261Z,97230.98
2022-09-14T11:44:11.865Z,97233.51
2022-09-14T11:47:19.646Z,97231.35
2022-09-14T11:50:28.102Z,97233.52
2022-09-14T11:53:32.119Z,97233.91
2022-09-14T11:56:34.014Z,97234.14
2022-09-14T11:59:49.717Z,97240.15
2022-09-14T12:02:58.490Z,97242.19
2022-09-14T12:06:35.055Z,97238.49
2022-09-14T12:09:41.199Z,97239.61
2022-09-14T12:12:46.674Z,97242.48
2022-09-14T12:16:00.834Z,97242.72
2022-09-14T12:19:03.155Z,97245.88
2022-09-14T12:22:32.479Z,97245.91
2022-09-14T12:25:34.596Z,97237.38
2022-09-14T12:28:38.929Z,97238.38
2022-09-14T12:31:43.787Z,97240.45
2022-09-14T12:34:45.262Z,97238.45
2022-09-14T12:37:46.765Z,97241.52
2022-09-14T12:40:48.224Z,97236.60
2022-09-14T12:43:50.075Z,97233.44
2022-09-14T12:46:51.705Z,97236.94
2022-09-14T12:49:58.001Z,97231.02
2022-09-14T12:53:23.663Z,97228.61
2022-09-14T12:56:40.379Z,97229.46
2022-09-14T13:00:00.956Z,97225.09
2022-09-14T13:03:22.438Z,97226.36
2022-09-14T13:06:32.023Z,97225.96
2022-09-14T13:09:33.998Z,97221.21
2022-09-14T13:12:44.615Z,97218.44
2022-09-14T13:15:55.351Z,97220.55
2022-09-14T13:19:07.981Z,97217.74
2022-09-14T13:22:20.433Z,97220.73
2022-09-14T13:25:35.911Z,97215.38
2022-09-14T13:28:38.459Z,97215.52
2022-09-14T13:31:40.527Z,97198.08
2022-09-14T13:34:43.403Z,97188.35
2022-09-14T13:37:48.305Z,97182.13
2022-09-14T13:40:54.711Z,97178.43
2022-09-14T13:43:57.826Z,97179.94
2022-09-14T13:47:02.759Z,97180.70
2022-09-14T13:50:06.853Z,97185.26
2022-09-14T13:53:48.153Z,97181.05
2022-09-14T13:57:18.854Z,97180.60
2022-09-14T14:00:20.974Z,97163.79
2022-09-14T14:03:28.195Z,97158.55
2022-09-14T14:06:32.188Z,97152.52
2022-09-14T14:09:52.523Z,97149.27
2022-09-14T14:12:55.108Z,97137.61
2022-09-14T14:16:15.180Z,97131.71
2022-09-14T14:19:28.158Z,97131.98
2022-09-14T14:22:33.518Z,97135.71
2022-09-14T14:25:42.145Z,97146.81
2022-09-14T14:28:46.639Z,97156.52
2022-09-14T14:31:48.560Z,97151.36
2022-09-14T14:34:52.418Z,97140.45
2022-09-14T14:37:54.600Z,97135.48
2022-09-14T14:40:57.401Z,97136.98
2022-09-14T14:43:59.012Z,97140.79
2022-09-14T14:47:00.443Z,97139.15
2022-09-14T14:50:03.618Z,97146.27
2022-09-14T14:53:06.117Z,97145.44
2022-09-14T14:56:11.380Z,97148.02
2022-09-14T14:59:18.958Z,97148.08
2022-09-14T15:02:20.436Z,97140.70
2022-09-14T15:05:21.990Z,97138.80
2022-09-14T15:08:23.526Z,97136.40
2022-09-14T15:11:24.967Z,97135.47
2022-09-14T15:14:27.452Z,97136.22
2022-09-14T15:17:29.038Z,97138.80
2022-09-14T15:20:30.498Z,97136.20
2022-09-14T15:23:32.510Z,97134.47
2022-09-14T15:26:34.620Z,97129.63
2022-09-14T15:29:35.953Z,97124.99
2022-09-14T15:32:39.719Z,97119.61
2022-09-14T15:35:41.191Z,97117.61
2022-09-14T15:38:42.655Z,97113.13
2022-09-14T15:41:45.135Z,97109.79
2022-09-14T15:44:46.869Z,97114.48
2022-09-14T15:47:48.553Z,97120.16
2022-09-14T15:50:50.040Z,97121.86
2022-09-14T15:53:56.927Z,97122.64
2022-09-14T15:56:59.485Z,97122.41
2022-09-14T16:00:03.931Z,97120.25
2022-09-14T16:03:15.191Z,97116.88
2022-09-14T16:06:16.745Z,97118.14
2022-09-14T16:09:21.924Z,97126.54
2022-09-14T16:12:23.751Z,97119.40
2022-09-14T16:15:25.461Z,97107.64
2022-09-14T16:18:27.225Z,97104.11
2022-09-14T16:21:29.440Z,97090.98
2022-09-14T16:24:31.644Z,97086.39
2022-09-14T16:27:33.258Z,97093.17
2022-09-14T16:30:34.910Z,97090.63
2022-09-14T16:33:42.535Z,97089.10
2022-09-14T16:36:44.946Z,97087.63
2022-09-14T16:39:47.534Z,97093.61
2022-09-14T16:42:50.908Z,97092.59
2022-09-14T16:46:03.220Z,97086.77
2022-09-14T16:49:05.558Z,97085.45
2022-09-14T16:52:07.421Z,97083.94
2022-09-14T16:55:09.406Z,97082.95
2022-09-14T16:58:12.055Z,97080.67
2022-09-14T17:01:23.196Z,97080.80
2022-09-14T17:04:25.158Z,97085.10
2022-09-14T17:07:26.817Z,97085.22
2022-09-14T17:10:32.669Z,97082.60
2022-09-14T17:13:38.230Z,97080.46
2022-09-14T17:16:40.129Z,97078.94
2022-09-14T17:19:43.827Z,97078.56
2022-09-14T17:22:46.923Z,97070.19
2022-09-14T17:25:49.112Z,97074.35
2022-09-14T17:28:53.598Z,97080.50
2022-09-14T17:31:55.331Z,97080.50
2022-09-14T17:34:57.121Z,97084.61
2022-09-14T17:37:59.370Z,97085.37
2022-09-14T17:41:08.435Z,97078.87
2022-09-14T17:44:13.106Z,97071.59
2022-09-14T17:47:17.269Z,97068.89
2022-09-14T17:50:20.817Z,97070.91
2022-09-14T17:53:22.772Z,97066.13
2022-09-14T17:56:27.511Z,97062.85
2022-09-14T17:59:29.556Z,97061.77
2022-09-14T18:02:31.850Z,97061.34
2022-09-14T18:05:33.983Z,97061.38
2022-09-14T18:08:38.168Z,97061.34
2022-09-14T18:11:40.306Z,97057.36
2022-09-14T18:14:42.133Z,97058.81
2022-09-14T18:17:45.769Z,97060.04
2022-09-14T18:20:47.736Z,97062.50
2022-09-14T18:23:51.112Z,97067.80
2022-09-14T18:26:53.101Z,97063.97
2022-09-14T18:29:55.070Z,97068.20
2022-09-14T18:32:57.093Z,97070.12
2022-09-14T18:35:59.523Z,97065.77
2022-09-14T18:39:02.001Z,97062.94
2022-09-14T18:42:04.157Z,97053.77
2022-09-14T18:45:06.197Z,97048.17
2022-09-14T18:48:08.246Z,97044.89
2022-09-14T18:51:12.275Z,97036.05
2022-09-14T18:54:14.708Z,97032.98
2022-09-14T18:57:19.344Z,97043.82
2022-09-14T19:00:21.623Z,97041.77
2022-09-14T19:03:24.200Z,97030.14
2022-09-14T19:06:26.431Z,97024.67
2022-09-14T19:09:28.232Z,97022.33
2022-09-14T19:12:31.131Z,97022.50
2022-09-14T19:15:34.942Z,97024.55
2022-09-14T19:18:37.737Z,97025.58
2022-09-14T19:21:40.248Z,97021.89
2022-09-14T19:24:43.506Z,97018.79
2022-09-14T19:27:51.896Z,97012.00
2022-09-14T19:30:54.818Z,97003.14
2022-09-14T19:34:03.088Z,97004.34
2022-09-14T19:37:05.286Z,97002.42
2022-09-14T19:40:08.940Z,97010.22
2022-09-14T19:43:11.336Z,97014.88
2022-09-14T19:46:16.655Z,97010.80
2022-09-14T19:49:24.481Z,97009.84
2022-09-14T19:52:26.323Z,97014.29
2022-09-14T19:55:28.128Z,97014.23
2022-09-14T19:58:33.725Z,97023.26
2022-09-14T20:01:38.693Z,97030.91
2022-09-14T20:04:40.652Z,97026.62
2022-09-14T20:07:44.881Z,97022.54
2022-09-14T20:10:47.359Z,97024.98
2022-09-14T20:13:52.439Z,97025.10
2022-09-14T20:16:57.241Z,97021.94
2022-09-14T20:19:58.731Z,97024.70
2022-09-14T20:23:04.805Z,97023.10
2022-09-14T20:26:09.019Z,97018.23
2022-09-14T20:29:10.587Z,97012.23
2022-09-14T20:32:19.569Z,97009.34
2022-09-14T20:35:21.917Z,97005.95
2022-09-14T20:38:23.865Z,97007.87
2022-09-14T20:41:31.407Z,97012.15
2022-09-14T20:44:37.047Z,97011.41
2022-09-14T20:47:38.953Z,97006.66
2022-09-14T20:50:50.353Z,97000.03
2022-09-14T20:53:58.343Z,97001.77
2022-09-14T20:57:04.233Z,96995.25
2022-09-14T21:00:06.880Z,96995.31
2022-09-14T21:03:17.670Z,96988.40
2022-09-14T21:06:24.287Z,96987.25
2022-09-14T21:09:26.594Z,96976.84
2022-09-14T21:12:28.738Z,96968.36
2022-09-14T21:15:34.339Z,96952.06
2022-09-14T21:18:40.607Z,96952.52
2022-09-14T21:21:43.071Z,96956.17
2022-09-14T21:24:44.830Z,96961.34
2022-09-14T21:27:49.011Z,96951.30
2022-09-14T21:30:53.374Z,96945.39
2022-09-14T21:33:58.934Z,96944.91
2022-09-14T21:37:03.547Z,96942.48
2022-09-14T21:40:05.915Z,96949.98
2022-09-14T21:43:08.091Z,96950.02
2022-09-14T21:46:10.963Z,96948.94
2022-09-14T21:49:15.707Z,96942.10
2022-09-14T21:52:17.367Z,96928.80
2022-09-14T21:55:21.125Z,96932.06
2022-09-14T21:58:22.868Z,96920.22
2022-09-14T22:01:25.563Z,96917.02
2022-09-14T22:04:27.153Z,96915.84
2022-09-14T22:07:28.953Z,96919.89
2022-09-14T22:10:30.467Z,96920.33
2022-09-14T22:13:32.336Z,96914.35
2022-09-14T22:16:36.325Z,96911.41
2022-09-14T22:19:37.925Z,96913.97
2022-09-14T22:22:42.153Z,96912.86
2022-09-14T22:25:43.693Z,96911.91
2022-09-14T22:28:47.493Z,96913.17
2022-09-14T22:31:49.509Z,96912.16
2022-09-14T22:34:51.110Z,96910.39
2022-09-14T22:37:52.548Z,96911.09
2022-09-14T22:40:55.380Z,96914.89
2022-09-14T22:43:58.021Z,96909.98
2022-09-14T22:46:59.570Z,96913.15
2022-09-14T22:50:01.288Z,96903.23
2022-09-14T22:53:02.841Z,96896.80
2022-09-14T22:56:17.373Z,96890.46
2022-09-14T22:59:18.846Z,96886.14
2022-09-14T23:02:20.501Z,96877.84
2022-09-14T23:05:22.071Z,96879.14
2022-09-14T23:08:23.758Z,96867.66
2022-09-14T23:11:25.569Z,96862.36
2022-09-14T23:14:27.285Z,96845.20
2022-09-14T23:17:28.768Z,96831.05
2022-09-14T23:20:31.481Z,96842.40
2022-09-14T23:23:33.192Z,96855.06
2022-09-14T23:26:34.790Z,96853.80
2022-09-14T23:29:36.258Z,96845.18
2022-09-14T23:32:37.831Z,96844.63
2022-09-14T23:35:39.289Z,96846.11
2022-09-14T23:38:42.273Z,96844.54
2022-09-14T23:41:43.710Z,96841.21
2022-09-14T23:44:45.440Z,96840.71
2022-09-14T23:47:47.039Z,96842.00
2022-09-14T23:50:59.290Z,96838.27
2022-09-14T23:54:00.765Z,96838.67
2022-09-14T23:57:02.412Z,96836.20
